• Join FlightAware (Why Join?)
  • Login
  • US Flag 
12:18AM EDT


 

Airport Tracker/Info


-or-


 

Live Flight TrackerFlight Track Log ✈ UAL4274 ✈ 10-Mar-2014 ✈ KRIC - KCLE

Flight Track Log - Related Links

Times and Time Zones

All times are in EDT time to prevent confusion due to time zone crossing. See the UAL4274 flight status page for this flight to view local times or setup timezone preferences in your user account.

Time Position Orientation Groundspeed Altitude Reporting Facility
EDT Latitude Longitude Course Direction KTS MPH feet Rate Location/Type
06:20AM 37.4603 -77.3056 310° West 167 192 1,800  Level Washington Center
06:21AM 37.4636 -77.3631 274° West 207 238 3,600 2,100 Climbing Washington Center
06:22AM 37.5022 -77.4192 311° West 228 262 6,100 2,340 Climbing Washington Center
06:23AM 37.7209 -77.6813 310° West  Level FlightAware Approximate
06:23AM 37.5472 -77.4778 314° West 228 262 8,300  Level Washington Center
06:24AM 37.7815 -77.7690 307° West  Level FlightAware Approximate
06:24AM 37.5900 -77.5417 310° West 239 275 10,400  Level Washington Center
06:25AM 37.8374 -77.8623 307° West  Level FlightAware Approximate
06:25AM 37.6411 -77.6139 312° West 249 287 11,400  Level Washington Center
06:26AM 37.8878 -77.9566 310° West  Level FlightAware Approximate
06:26AM 37.6961 -77.6939 311° West 274 315 12,600  Level Washington Center
06:27AM 37.7531 -77.7744 312° West 304 350 14,100 1,740 Climbing Washington Center
06:28AM 37.8097 -77.8575 311° West 309 356 16,200 1,740 Climbing Washington Center
06:29AM 37.8606 -77.9328 311° West 304 350 17,700 1,380 Climbing Washington Center
06:30AM 37.9175 -78.0108 313° West 299 344 19,000 1,140 Climbing Washington Center
06:31AM 37.9742 -78.0944 311° West 304 350 20,100 1,020 Climbing Washington Center
06:32AM 38.0500 -78.1575 327° Northwest 322 371 21,100 960 Climbing Washington Center
06:33AM 38.1478 -78.1661 356° North 318 366 22,100 960 Climbing Washington Center
06:34AM 38.2497 -78.1697 358° North 335 386 23,100 1,020 Climbing Washington Center
06:35AM 38.3497 -78.1758 357° North 348 400 24,200 900 Climbing Washington Center
06:36AM 38.4497 -78.1819 357° North 353 406 25,000 360 Climbing Washington Center
06:37AM 38.5539 -78.1881 357° North 360 414 25,000  Level Washington Center
06:38AM 38.6642 -78.1947 357° North 372 428 25,000  Level Washington Center
06:39AM 38.7789 -78.2014 357° North 388 447 25,000  Level Washington Center
06:40AM 38.8828 -78.2103 356° North 401 461 25,000  Level Washington Center
06:41AM 38.9972 -78.2225 355° North 406 467 25,000  Level Washington Center
06:42AM 39.1136 -78.2347 355° North 411 473 25,000  Level Washington Center
06:43AM 39.2303 -78.2469 355° North 416 479 25,000  Level Washington Center
06:46AM 39.5325 -78.2750 356° North 420 483 25,000  Level Cleveland Center
06:47AM 39.6494 -78.2858 356° North 420 483 25,000  Level Cleveland Center
06:48AM 39.7647 -78.2997 355° North 419 482 25,000  Level Cleveland Center
06:49AM 39.8744 -78.3092 356° North 418 481 25,000  Level Cleveland Center
06:50AM 39.9850 -78.3325 351° North 409 471 25,000  Level Cleveland Center
06:51AM 40.0586 -78.4342 313° West 390 449 25,000  Level Cleveland Center
06:52AM 40.1278 -78.5383 311° West 382 440 25,000  Level Cleveland Center
06:53AM 40.1958 -78.6444 310° West 382 440 25,000 -60 Level Cleveland Center
06:54AM 40.2781 -78.7736 310° West 383 441 24,900 -540 Descending Cleveland Center
06:55AM 40.3444 -78.8806 309° West 382 440 24,000 -480 Descending Cleveland Center
06:56AM 40.4050 -78.9883 306° West 374 430 24,000  Level Cleveland Center
06:57AM 40.4664 -79.0972 307° West 373 429 24,000  Level Cleveland Center
06:58AM 40.5272 -79.2069 306° West 373 429 24,000  Level Cleveland Center
06:59AM 40.5881 -79.3142 307° West 374 430 24,000  Level Cleveland Center
07:00AM 40.6492 -79.4244 306° West 376 433 24,000  Level Cleveland Center
07:01AM 40.7089 -79.5325 306° West 371 427 24,000  Level Cleveland Center
07:02AM 40.7694 -79.6406 307° West 371 427 24,000  Level Cleveland Center
07:03AM 40.8408 -79.7722 306° West 371 427 24,000  Level Cleveland Center
07:04AM 40.9019 -79.8817 306° West 372 428 24,000  Level Cleveland Center
07:05AM 40.9617 -79.9917 306° West 371 427 24,000  Level Cleveland Center
07:06AM 41.0217 -80.1008 306° West 372 428 24,000  Level Cleveland Center
07:07AM 41.0828 -80.2094 307° West 371 427 24,000  Level Cleveland Center
07:08AM 41.1419 -80.3206 305° West 371 427 24,000  Level Cleveland Center
07:09AM 41.2022 -80.4356 305° West 370 426 24,000 -1,080 Level Cleveland Center
07:10AM 41.2617 -80.5450 306° West 367 422 21,800 -2,580 Descending Cleveland Center
07:11AM 41.3286 -80.6703 305° West 356 410 18,800 -2,760 Descending Cleveland Center
07:12AM 41.3722 -80.7792 298° West 337 388 16,200 -2,580 Descending Cleveland Center
07:13AM 41.3958 -80.8447 296° West 333 383 14,600 -2,580 Descending Cleveland Center
07:13AM 41.4128 -80.8894 297° West 332 382 13,600 -2,220 Descending Cleveland Center
07:14AM 41.4336 -80.9425 298° West 320 368 12,600 -1,980 Descending Cleveland Center
07:14AM 41.4525 -80.9925 297° West 318 366 11,600 -1,740 Descending Cleveland Center
07:15AM 41.4647 -81.0475 287° West 305 351 10,900 -1,200 Descending Cleveland Center
07:15AM 41.4703 -81.1047 277° West 315 362 10,400 -720 Descending Cleveland Center
07:16AM 41.4772 -81.1692 278° West 306 352 10,100 -420 Descending Cleveland Center
07:16AM 41.4822 -81.2164 278° West 308 354 10,000 -120 Descending Cleveland Center
07:17AM 41.4872 -81.2964 275° West 296 341 10,000  Level Cleveland Center
07:17AM 41.4911 -81.3203 282° West 286 329 10,000 -1,020 Level Cleveland Center
07:18AM 41.4956 -81.3675 277° West 225 259 9,100 -1,680 Descending Cleveland Center
07:18AM 41.4975 -81.4039 274° West 235 270 8,300 -1,980 Descending Cleveland Center
07:19AM 41.5039 -81.4636 278° West 219 252 6,900 -1,860 Descending Cleveland Center
07:20AM 41.5058 -81.4861 277° West 227 261 6,400 -1,620 Descending Cleveland Center
07:20AM 41.5114 -81.5458 277° West 225 259 5,300 -1,620 Descending Cleveland Center
07:21AM 41.5131 -81.5711 275° West 227 261 4,800 -1,380 Descending Cleveland Center
07:21AM 41.5167 -81.6250 275° West 234 269 4,100 -780 Descending Cleveland Center
07:22AM 41.5167 -81.6703 270° West 229 264 4,000 -480 Descending Cleveland Center
07:22AM 41.5025 -81.7119 246° West 232 267 3,600 -1,020 Descending Cleveland Center
07:23AM 41.4831 -81.7414 229° Southwest 229 264 3,000 -1,020 Descending Cleveland Center
07:23AM 41.4661 -81.7675 229° Southwest 178 205 2,600 -900 Descending Cleveland Center
07:24AM 41.4561 -81.7847 232° Southwest 170 196 2,100 -900 Descending Cleveland Center
07:24AM 41.4486 -81.7981 233° Southwest 103 119 1,900 -600 Descending Cleveland Center
07:25AM 41.4356 -81.8161 226° Southwest 130 150 1,500 -660 Descending Cleveland Center
07:25AM 41.4194 -81.8408 229° Southwest 123 142 1,100 -720 Descending Cleveland Center
07:26AM 41.4142 -81.8514 236° Southwest 123 142 800 -780 Descending Cleveland Center